sensor_id;sensor_type;location;lat;lon;timestamp;P1;durP1;ratioP1;P2;durP2;ratioP2
43962;SDS011;29622;45.534;9.242;2023-02-23T00:04:53;92.25;;;41.08;;
43962;SDS011;29622;45.534;9.242;2023-02-23T00:09:53;65.13;;;30.90;;
43962;SDS011;29622;45.534;9.242;2023-02-23T00:14:56;93.65;;;41.83;;
43962;SDS011;29622;45.534;9.242;2023-02-23T00:19:58;97.72;;;42.83;;
43962;SDS011;29622;45.534;9.242;2023-02-23T00:25:00;76.15;;;35.53;;
43962;SDS011;29622;45.534;9.242;2023-02-23T00:30:01;41.10;;;20.20;;
43962;SDS011;29622;45.534;9.242;2023-02-23T00:35:02;90.57;;;39.28;;
43962;SDS011;29622;45.534;9.242;2023-02-23T00:40:03;101.15;;;42.80;;
43962;SDS011;29622;45.534;9.242;2023-02-23T00:45:13;93.50;;;42.50;;
43962;SDS011;29622;45.534;9.242;2023-02-23T00:50:14;93.40;;;43.78;;
43962;SDS011;29622;45.534;9.242;2023-02-23T00:55:17;90.25;;;40.88;;
43962;SDS011;29622;45.534;9.242;2023-02-23T01:00:18;97.55;;;43.95;;
43962;SDS011;29622;45.534;9.242;2023-02-23T01:05:19;90.22;;;42.30;;
43962;SDS011;29622;45.534;9.242;2023-02-23T01:10:21;102.80;;;47.67;;
43962;SDS011;29622;45.534;9.242;2023-02-23T01:15:22;104.63;;;47.65;;
43962;SDS011;29622;45.534;9.242;2023-02-23T01:20:23;105.57;;;46.35;;
43962;SDS011;29622;45.534;9.242;2023-02-23T01:25:23;106.47;;;46.72;;
43962;SDS011;29622;45.534;9.242;2023-02-23T01:30:27;101.90;;;43.33;;
43962;SDS011;29622;45.534;9.242;2023-02-23T01:35:28;106.68;;;46.20;;
43962;SDS011;29622;45.534;9.242;2023-02-23T01:40:29;103.22;;;45.58;;
43962;SDS011;29622;45.534;9.242;2023-02-23T01:45:34;102.13;;;45.15;;
43962;SDS011;29622;45.534;9.242;2023-02-23T01:50:41;113.13;;;44.38;;
43962;SDS011;29622;45.534;9.242;2023-02-23T01:55:48;94.05;;;43.88;;
43962;SDS011;29622;45.534;9.242;2023-02-23T02:00:56;115.85;;;48.75;;
43962;SDS011;29622;45.534;9.242;2023-02-23T02:06:03;107.68;;;46.85;;
43962;SDS011;29622;45.534;9.242;2023-02-23T02:11:06;103.57;;;45.83;;
43962;SDS011;29622;45.534;9.242;2023-02-23T02:27:08;109.95;;;48.17;;
43962;SDS011;29622;45.534;9.242;2023-02-23T02:32:44;107.32;;;46.67;;
43962;SDS011;29622;45.534;9.242;2023-02-23T02:38:25;115.60;;;49.20;;
43962;SDS011;29622;45.534;9.242;2023-02-23T02:43:37;117.07;;;50.03;;
43962;SDS011;29622;45.534;9.242;2023-02-23T02:49:02;88.13;;;38.08;;
43962;SDS011;29622;45.534;9.242;2023-02-23T02:59:42;126.10;;;51.88;;
43962;SDS011;29622;45.534;9.242;2023-02-23T03:05:16;106.90;;;50.90;;
43962;SDS011;29622;45.534;9.242;2023-02-23T03:11:10;123.32;;;50.50;;
43962;SDS011;29622;45.534;9.242;2023-02-23T03:22:31;113.25;;;50.03;;
43962;SDS011;29622;45.534;9.242;2023-02-23T03:33:40;109.93;;;49.45;;
43962;SDS011;29622;45.534;9.242;2023-02-23T03:39:36;115.75;;;49.03;;
43962;SDS011;29622;45.534;9.242;2023-02-23T03:45:00;119.70;;;48.55;;
43962;SDS011;29622;45.534;9.242;2023-02-23T03:50:34;111.90;;;48.05;;
43962;SDS011;29622;45.534;9.242;2023-02-23T03:55:58;112.40;;;48.42;;
43962;SDS011;29622;45.534;9.242;2023-02-23T04:01:20;130.68;;;51.13;;
43962;SDS011;29622;45.534;9.242;2023-02-23T04:06:43;117.13;;;50.80;;
43962;SDS011;29622;45.534;9.242;2023-02-23T04:17:27;116.40;;;47.85;;
43962;SDS011;29622;45.534;9.242;2023-02-23T04:22:28;122.88;;;53.72;;
43962;SDS011;29622;45.534;9.242;2023-02-23T04:27:29;123.80;;;54.22;;
43962;SDS011;29622;45.534;9.242;2023-02-23T04:32:30;128.40;;;52.85;;
43962;SDS011;29622;45.534;9.242;2023-02-23T04:37:30;135.02;;;56.50;;
43962;SDS011;29622;45.534;9.242;2023-02-23T04:42:31;132.77;;;54.08;;
43962;SDS011;29622;45.534;9.242;2023-02-23T04:47:31;134.95;;;54.70;;
43962;SDS011;29622;45.534;9.242;2023-02-23T04:52:32;124.53;;;51.53;;
43962;SDS011;29622;45.534;9.242;2023-02-23T04:57:34;135.57;;;56.20;;
43962;SDS011;29622;45.534;9.242;2023-02-23T05:02:34;118.63;;;53.40;;
43962;SDS011;29622;45.534;9.242;2023-02-23T05:07:35;128.40;;;55.83;;
43962;SDS011;29622;45.534;9.242;2023-02-23T05:12:36;132.13;;;56.03;;
43962;SDS011;29622;45.534;9.242;2023-02-23T05:17:40;137.98;;;54.60;;
43962;SDS011;29622;45.534;9.242;2023-02-23T05:22:41;140.75;;;58.33;;
43962;SDS011;29622;45.534;9.242;2023-02-23T05:27:42;134.45;;;56.58;;
43962;SDS011;29622;45.534;9.242;2023-02-23T05:32:42;131.35;;;56.70;;
43962;SDS011;29622;45.534;9.242;2023-02-23T05:37:43;129.98;;;56.53;;
43962;SDS011;29622;45.534;9.242;2023-02-23T05:42:44;142.95;;;58.53;;
43962;SDS011;29622;45.534;9.242;2023-02-23T05:47:45;150.70;;;60.35;;
43962;SDS011;29622;45.534;9.242;2023-02-23T05:52:45;149.93;;;64.15;;
43962;SDS011;29622;45.534;9.242;2023-02-23T05:57:46;146.57;;;60.58;;
43962;SDS011;29622;45.534;9.242;2023-02-23T06:02:47;143.88;;;60.70;;
43962;SDS011;29622;45.534;9.242;2023-02-23T06:07:51;145.23;;;62.47;;
43962;SDS011;29622;45.534;9.242;2023-02-23T06:12:52;145.60;;;61.30;;
43962;SDS011;29622;45.534;9.242;2023-02-23T06:17:53;146.95;;;58.25;;
43962;SDS011;29622;45.534;9.242;2023-02-23T06:22:54;146.70;;;59.58;;
43962;SDS011;29622;45.534;9.242;2023-02-23T06:27:54;143.27;;;58.63;;
43962;SDS011;29622;45.534;9.242;2023-02-23T06:32:55;154.43;;;61.97;;
43962;SDS011;29622;45.534;9.242;2023-02-23T06:37:56;156.45;;;62.20;;
43962;SDS011;29622;45.534;9.242;2023-02-23T06:42:57;161.90;;;60.42;;
43962;SDS011;29622;45.534;9.242;2023-02-23T06:47:59;152.57;;;63.58;;
43962;SDS011;29622;45.534;9.242;2023-02-23T06:53:00;151.30;;;59.40;;
43962;SDS011;29622;45.534;9.242;2023-02-23T06:58:00;150.13;;;61.63;;
43962;SDS011;29622;45.534;9.242;2023-02-23T07:03:02;140.95;;;59.75;;
43962;SDS011;29622;45.534;9.242;2023-02-23T07:08:02;145.85;;;61.40;;
43962;SDS011;29622;45.534;9.242;2023-02-23T07:13:04;64.00;;;28.25;;
43962;SDS011;29622;45.534;9.242;2023-02-23T07:18:05;139.98;;;56.55;;
43962;SDS011;29622;45.534;9.242;2023-02-23T07:23:08;121.07;;;49.80;;
43962;SDS011;29622;45.534;9.242;2023-02-23T07:28:09;139.70;;;55.47;;
43962;SDS011;29622;45.534;9.242;2023-02-23T07:33:13;155.30;;;59.25;;
43962;SDS011;29622;45.534;9.242;2023-02-23T07:38:13;152.27;;;62.40;;
43962;SDS011;29622;45.534;9.242;2023-02-23T07:43:14;84.90;;;38.08;;
43962;SDS011;29622;45.534;9.242;2023-02-23T07:48:15;52.88;;;24.15;;
43962;SDS011;29622;45.534;9.242;2023-02-23T07:53:16;59.90;;;27.52;;
43962;SDS011;29622;45.534;9.242;2023-02-23T07:58:16;75.57;;;32.60;;
43962;SDS011;29622;45.534;9.242;2023-02-23T08:03:18;153.68;;;61.58;;
43962;SDS011;29622;45.534;9.242;2023-02-23T08:08:18;48.03;;;23.92;;
43962;SDS011;29622;45.534;9.242;2023-02-23T08:13:22;138.80;;;57.53;;
43962;SDS011;29622;45.534;9.242;2023-02-23T08:18:23;58.25;;;27.73;;
43962;SDS011;29622;45.534;9.242;2023-02-23T08:23:24;130.95;;;56.38;;
43962;SDS011;29622;45.534;9.242;2023-02-23T08:28:25;142.68;;;60.40;;
43962;SDS011;29622;45.534;9.242;2023-02-23T08:33:27;148.45;;;61.05;;
43962;SDS011;29622;45.534;9.242;2023-02-23T08:38:28;144.20;;;61.20;;
43962;SDS011;29622;45.534;9.242;2023-02-23T08:43:30;152.30;;;63.13;;
43962;SDS011;29622;45.534;9.242;2023-02-23T08:48:31;82.05;;;36.47;;
43962;SDS011;29622;45.534;9.242;2023-02-23T08:53:32;135.05;;;60.53;;
43962;SDS011;29622;45.534;9.242;2023-02-23T08:58:33;144.38;;;62.80;;
43962;SDS011;29622;45.534;9.242;2023-02-23T09:03:35;104.85;;;46.72;;
43962;SDS011;29622;45.534;9.242;2023-02-23T09:08:36;151.23;;;60.40;;
43962;SDS011;29622;45.534;9.242;2023-02-23T09:13:39;130.10;;;59.60;;
43962;SDS011;29622;45.534;9.242;2023-02-23T09:18:41;153.68;;;64.20;;
43962;SDS011;29622;45.534;9.242;2023-02-23T09:23:41;138.45;;;61.75;;
43962;SDS011;29622;45.534;9.242;2023-02-23T09:28:42;126.88;;;59.78;;
43962;SDS011;29622;45.534;9.242;2023-02-23T09:33:43;129.13;;;57.22;;
43962;SDS011;29622;45.534;9.242;2023-02-23T09:38:44;61.03;;;28.55;;
43962;SDS011;29622;45.534;9.242;2023-02-23T09:43:49;53.10;;;25.65;;
43962;SDS011;29622;45.534;9.242;2023-02-23T09:49:12;121.22;;;50.63;;
43962;SDS011;29622;45.534;9.242;2023-02-23T09:54:17;115.07;;;54.53;;
43962;SDS011;29622;45.534;9.242;2023-02-23T09:59:21;104.82;;;46.50;;
43962;SDS011;29622;45.534;9.242;2023-02-23T10:14:40;70.00;;;33.30;;
43962;SDS011;29622;45.534;9.242;2023-02-23T10:20:03;42.83;;;22.30;;
43962;SDS011;29622;45.534;9.242;2023-02-23T10:25:25;88.72;;;38.25;;
43962;SDS011;29622;45.534;9.242;2023-02-23T10:30:30;90.95;;;38.70;;
43962;SDS011;29622;45.534;9.242;2023-02-23T10:35:33;62.72;;;28.67;;
43962;SDS011;29622;45.534;9.242;2023-02-23T10:40:34;67.28;;;29.98;;
43962;SDS011;29622;45.534;9.242;2023-02-23T10:45:37;61.35;;;27.70;;
43962;SDS011;29622;45.534;9.242;2023-02-23T10:50:43;53.25;;;26.25;;
43962;SDS011;29622;45.534;9.242;2023-02-23T10:55:45;67.28;;;33.70;;
43962;SDS011;29622;45.534;9.242;2023-02-23T11:00:53;49.55;;;25.00;;
43962;SDS011;29622;45.534;9.242;2023-02-23T11:05:59;65.30;;;32.08;;
43962;SDS011;29622;45.534;9.242;2023-02-23T11:16:05;61.50;;;27.13;;
43962;SDS011;29622;45.534;9.242;2023-02-23T11:21:10;75.07;;;32.97;;
43962;SDS011;29622;45.534;9.242;2023-02-23T11:26:19;48.90;;;26.08;;
43962;SDS011;29622;45.534;9.242;2023-02-23T11:31:29;68.38;;;31.83;;
43962;SDS011;29622;45.534;9.242;2023-02-23T11:36:34;52.83;;;28.02;;
43962;SDS011;29622;45.534;9.242;2023-02-23T11:41:35;62.85;;;30.42;;
43962;SDS011;29622;45.534;9.242;2023-02-23T11:46:36;48.05;;;23.45;;
43962;SDS011;29622;45.534;9.242;2023-02-23T11:51:38;67.30;;;31.50;;
43962;SDS011;29622;45.534;9.242;2023-02-23T11:56:40;65.82;;;30.08;;
43962;SDS011;29622;45.534;9.242;2023-02-23T12:02:01;66.82;;;31.80;;
43962;SDS011;29622;45.534;9.242;2023-02-23T12:12:51;55.45;;;21.65;;
43962;SDS011;29622;45.534;9.242;2023-02-23T12:18:00;38.85;;;20.27;;
43962;SDS011;29622;45.534;9.242;2023-02-23T12:23:21;54.58;;;25.63;;
43962;SDS011;29622;45.534;9.242;2023-02-23T12:28:32;42.55;;;18.85;;
43962;SDS011;29622;45.534;9.242;2023-02-23T12:34:01;53.75;;;24.95;;
43962;SDS011;29622;45.534;9.242;2023-02-23T12:39:15;43.00;;;19.48;;
43962;SDS011;29622;45.534;9.242;2023-02-23T12:44:31;52.33;;;22.08;;
43962;SDS011;29622;45.534;9.242;2023-02-23T12:49:40;49.08;;;21.40;;
43962;SDS011;29622;45.534;9.242;2023-02-23T12:54:48;47.78;;;22.90;;
43962;SDS011;29622;45.534;9.242;2023-02-23T13:00:14;45.25;;;20.67;;
43962;SDS011;29622;45.534;9.242;2023-02-23T13:05:30;37.20;;;18.58;;
43962;SDS011;29622;45.534;9.242;2023-02-23T13:15:47;40.13;;;18.83;;
43962;SDS011;29622;45.534;9.242;2023-02-23T13:31:28;41.25;;;20.13;;
43962;SDS011;29622;45.534;9.242;2023-02-23T13:36:32;41.03;;;18.63;;
43962;SDS011;29622;45.534;9.242;2023-02-23T13:47:40;46.05;;;20.42;;
43962;SDS011;29622;45.534;9.242;2023-02-23T13:52:53;36.22;;;17.88;;
43962;SDS011;29622;45.534;9.242;2023-02-23T13:58:04;37.58;;;18.20;;
43962;SDS011;29622;45.534;9.242;2023-02-23T14:03:21;34.67;;;17.63;;
43962;SDS011;29622;45.534;9.242;2023-02-23T14:08:33;39.80;;;18.90;;
43962;SDS011;29622;45.534;9.242;2023-02-23T14:13:40;38.78;;;18.50;;
43962;SDS011;29622;45.534;9.242;2023-02-23T14:19:11;43.75;;;18.73;;
43962;SDS011;29622;45.534;9.242;2023-02-23T14:24:33;37.47;;;17.42;;
43962;SDS011;29622;45.534;9.242;2023-02-23T18:53:38;83.60;;;38.65;;
43962;SDS011;29622;45.534;9.242;2023-02-23T18:58:39;65.82;;;29.20;;
43962;SDS011;29622;45.534;9.242;2023-02-23T19:03:43;86.20;;;36.50;;
43962;SDS011;29622;45.534;9.242;2023-02-23T19:08:47;67.18;;;29.10;;
43962;SDS011;29622;45.534;9.242;2023-02-23T19:13:53;67.47;;;27.88;;
43962;SDS011;29622;45.534;9.242;2023-02-23T19:18:56;66.80;;;27.77;;
43962;SDS011;29622;45.534;9.242;2023-02-23T19:23:58;52.65;;;26.95;;
43962;SDS011;29622;45.534;9.242;2023-02-23T19:29:01;56.55;;;26.45;;
43962;SDS011;29622;45.534;9.242;2023-02-23T19:34:02;58.10;;;29.20;;
43962;SDS011;29622;45.534;9.242;2023-02-23T19:39:04;59.85;;;26.88;;
43962;SDS011;29622;45.534;9.242;2023-02-23T19:44:09;59.08;;;27.63;;
43962;SDS011;29622;45.534;9.242;2023-02-23T19:49:10;55.45;;;27.17;;
43962;SDS011;29622;45.534;9.242;2023-02-23T19:54:10;67.20;;;27.98;;
43962;SDS011;29622;45.534;9.242;2023-02-23T19:59:11;58.03;;;27.80;;
43962;SDS011;29622;45.534;9.242;2023-02-23T20:04:12;58.85;;;28.17;;
43962;SDS011;29622;45.534;9.242;2023-02-23T20:09:13;60.55;;;27.58;;
43962;SDS011;29622;45.534;9.242;2023-02-23T20:14:14;62.50;;;28.20;;
43962;SDS011;29622;45.534;9.242;2023-02-23T20:19:16;60.53;;;27.83;;
43962;SDS011;29622;45.534;9.242;2023-02-23T20:24:18;70.10;;;29.45;;
43962;SDS011;29622;45.534;9.242;2023-02-23T20:29:19;63.72;;;28.02;;
43962;SDS011;29622;45.534;9.242;2023-02-23T20:34:21;62.33;;;28.85;;
43962;SDS011;29622;45.534;9.242;2023-02-23T20:39:23;56.53;;;28.17;;
43962;SDS011;29622;45.534;9.242;2023-02-23T20:44:25;66.75;;;30.15;;
43962;SDS011;29622;45.534;9.242;2023-02-23T20:49:28;70.40;;;29.27;;
43962;SDS011;29622;45.534;9.242;2023-02-23T20:54:28;59.25;;;29.10;;
43962;SDS011;29622;45.534;9.242;2023-02-23T20:59:29;43.40;;;18.52;;
43962;SDS011;29622;45.534;9.242;2023-02-23T21:04:30;63.83;;;29.02;;
43962;SDS011;29622;45.534;9.242;2023-02-23T21:09:31;66.95;;;29.83;;
43962;SDS011;29622;45.534;9.242;2023-02-23T21:14:32;67.35;;;29.15;;
43962;SDS011;29622;45.534;9.242;2023-02-23T21:19:32;62.08;;;27.70;;
43962;SDS011;29622;45.534;9.242;2023-02-23T21:24:33;62.67;;;30.25;;
43962;SDS011;29622;45.534;9.242;2023-02-23T21:29:40;61.53;;;26.45;;
43962;SDS011;29622;45.534;9.242;2023-02-23T21:34:42;60.85;;;26.10;;
43962;SDS011;29622;45.534;9.242;2023-02-23T21:39:43;55.13;;;27.65;;
43962;SDS011;29622;45.534;9.242;2023-02-23T21:44:46;68.53;;;29.38;;
43962;SDS011;29622;45.534;9.242;2023-02-23T21:49:47;62.50;;;28.33;;
43962;SDS011;29622;45.534;9.242;2023-02-23T21:54:49;60.33;;;29.95;;
43962;SDS011;29622;45.534;9.242;2023-02-23T21:59:51;69.40;;;30.00;;
43962;SDS011;29622;45.534;9.242;2023-02-23T22:04:52;66.82;;;31.38;;
43962;SDS011;29622;45.534;9.242;2023-02-23T22:09:52;67.80;;;31.45;;
43962;SDS011;29622;45.534;9.242;2023-02-23T22:14:53;49.33;;;22.00;;
43962;SDS011;29622;45.534;9.242;2023-02-23T22:19:54;76.10;;;32.35;;
43962;SDS011;29622;45.534;9.242;2023-02-23T22:24:55;70.88;;;33.00;;
43962;SDS011;29622;45.534;9.242;2023-02-23T22:29:56;71.40;;;32.55;;
43962;SDS011;29622;45.534;9.242;2023-02-23T22:35:00;72.55;;;31.63;;
43962;SDS011;29622;45.534;9.242;2023-02-23T22:40:02;80.50;;;35.67;;
43962;SDS011;29622;45.534;9.242;2023-02-23T22:45:16;70.25;;;30.88;;
43962;SDS011;29622;45.534;9.242;2023-02-23T22:50:17;70.65;;;30.40;;
43962;SDS011;29622;45.534;9.242;2023-02-23T22:55:18;65.25;;;29.25;;
43962;SDS011;29622;45.534;9.242;2023-02-23T23:00:18;59.45;;;27.10;;
43962;SDS011;29622;45.534;9.242;2023-02-23T23:05:19;77.80;;;36.50;;
43962;SDS011;29622;45.534;9.242;2023-02-23T23:10:20;76.97;;;35.45;;
43962;SDS011;29622;45.534;9.242;2023-02-23T23:15:21;69.00;;;35.10;;
43962;SDS011;29622;45.534;9.242;2023-02-23T23:20:22;80.22;;;37.35;;
43962;SDS011;29622;45.534;9.242;2023-02-23T23:25:24;75.43;;;36.20;;
43962;SDS011;29622;45.534;9.242;2023-02-23T23:30:25;87.68;;;37.30;;
43962;SDS011;29622;45.534;9.242;2023-02-23T23:35:28;74.43;;;35.67;;
43962;SDS011;29622;45.534;9.242;2023-02-23T23:40:28;80.38;;;36.65;;
43962;SDS011;29622;45.534;9.242;2023-02-23T23:45:34;85.07;;;37.55;;
43962;SDS011;29622;45.534;9.242;2023-02-23T23:50:38;76.13;;;36.75;;
43962;SDS011;29622;45.534;9.242;2023-02-23T23:55:39;90.30;;;38.28;;
